createdAt,value
2019-04-21T00:01:07.149Z,5.42
2019-04-21T00:03:40.763Z,5.60
2019-04-21T00:06:22.522Z,5.87
2019-04-21T00:08:57.872Z,6.02
2019-04-21T00:11:28.148Z,6.10
2019-04-21T00:13:52.709Z,6.17
2019-04-21T00:16:12.702Z,6.28
2019-04-21T00:19:07.128Z,6.38
2019-04-21T00:21:38.560Z,6.35
2019-04-21T00:24:25.095Z,6.23
2019-04-21T00:27:06.885Z,6.05
2019-04-21T00:29:38.588Z,5.90
2019-04-21T00:32:04.366Z,5.79
2019-04-21T00:34:19.583Z,5.68
2019-04-21T00:37:00.147Z,5.60
2019-04-21T00:39:52.464Z,5.54
2019-04-21T00:42:11.168Z,5.51
2019-04-21T00:44:35.525Z,5.44
2019-04-21T00:47:13.944Z,5.41
2019-04-21T00:49:52.157Z,5.37
2019-04-21T00:57:57.476Z,5.21
2019-04-21T01:00:22.253Z,5.22
2019-04-21T01:02:56.120Z,5.22
2019-04-21T01:05:33.784Z,5.17
2019-04-21T01:07:55.904Z,5.09
2019-04-21T01:10:20.812Z,5.02
2019-04-21T01:13:02.966Z,4.88
2019-04-21T01:15:39.886Z,4.72
2019-04-21T01:17:58.540Z,4.57
2019-04-21T01:20:17.416Z,4.45
2019-04-21T01:22:42.317Z,4.37
2019-04-21T01:25:20.234Z,4.30
2019-04-21T01:27:59.351Z,4.21
2019-04-21T01:30:34.622Z,4.12
2019-04-21T01:33:09.481Z,4.07
2019-04-21T01:35:39.755Z,4.05
2019-04-21T01:38:13.942Z,4.04
2019-04-21T01:40:43.194Z,3.94
2019-04-21T01:43:07.440Z,3.86
2019-04-21T01:45:41.655Z,3.80
2019-04-21T01:48:10.338Z,3.70
2019-04-21T01:50:43.876Z,3.61
2019-04-21T01:53:30.669Z,3.49
2019-04-21T01:56:17.231Z,3.40
2019-04-21T01:58:44.301Z,3.33
2019-04-21T02:01:24.632Z,3.38
2019-04-21T02:04:11.738Z,3.59
2019-04-21T02:06:27.110Z,3.85
2019-04-21T02:08:55.159Z,3.99
2019-04-21T02:11:31.278Z,4.00
2019-04-21T02:14:05.999Z,3.98
2019-04-21T02:16:28.217Z,3.87
2019-04-21T02:18:58.549Z,3.71
2019-04-21T02:21:29.429Z,3.54
2019-04-21T02:26:37.770Z,3.42
2019-04-21T02:29:07.096Z,3.36
2019-04-21T02:31:57.521Z,3.34
2019-04-21T02:34:17.305Z,3.36
2019-04-21T02:37:11.067Z,3.29
2019-04-21T02:39:23.152Z,3.28
2019-04-21T02:42:05.476Z,3.23
2019-04-21T02:46:46.396Z,3.20
2019-04-21T02:49:35.485Z,3.30
2019-04-21T02:52:09.196Z,3.30
2019-04-21T02:57:02.035Z,3.25
2019-04-21T02:59:49.661Z,3.17
2019-04-21T03:02:40.710Z,3.07
2019-04-21T03:07:52.102Z,2.99
2019-04-21T03:10:18.390Z,2.95
2019-04-21T03:17:48.796Z,3.04
2019-04-21T03:20:26.783Z,3.03
2019-04-21T03:22:58.200Z,2.98
2019-04-21T03:27:56.917Z,2.86
2019-04-21T03:30:44.931Z,2.90
2019-04-21T03:35:58.221Z,3.01
2019-04-21T03:38:03.874Z,2.99
2019-04-21T03:40:26.088Z,3.02
2019-04-21T03:43:01.851Z,3.01
2019-04-21T03:45:40.518Z,3.03
2019-04-21T03:48:01.055Z,3.02
2019-04-21T03:53:03.492Z,3.01
2019-04-21T04:01:04.159Z,3.07
2019-04-21T04:06:51.205Z,3.28
2019-04-21T04:14:12.850Z,3.34
2019-04-21T04:18:57.677Z,3.54
2019-04-21T04:24:07.184Z,3.65
2019-04-21T04:26:43.356Z,3.80
2019-04-21T04:29:10.939Z,4.06
2019-04-21T04:34:16.739Z,4.52
2019-04-21T04:39:42.742Z,5.08
2019-04-21T04:42:29.957Z,5.50
2019-04-21T04:49:54.973Z,7.38
2019-04-21T04:57:34.267Z,8.81
2019-04-21T05:02:33.768Z,9.59
2019-04-21T05:05:13.812Z,10.24
2019-04-21T05:10:03.978Z,11.76
2019-04-21T05:12:36.483Z,12.17
2019-04-21T05:15:07.920Z,12.47
2019-04-21T05:20:17.126Z,12.97
2019-04-21T05:22:41.199Z,13.74
2019-04-21T05:24:59.438Z,13.74
2019-04-21T05:27:45.147Z,14.07
2019-04-21T05:30:55.335Z,14.47
2019-04-21T05:33:45.998Z,15.11
2019-04-21T05:36:38.253Z,15.18
2019-04-21T05:39:14.837Z,16.16
2019-04-21T05:41:39.778Z,16.47
2019-04-21T05:44:32.245Z,17.11
2019-04-21T05:47:05.554Z,17.10
2019-04-21T05:49:45.175Z,17.82
2019-04-21T05:52:15.004Z,18.17
2019-04-21T05:54:57.870Z,18.18
2019-04-21T05:57:14.775Z,18.68
2019-04-21T06:00:08.746Z,18.94
2019-04-21T06:02:35.189Z,19.32
2019-04-21T06:07:28.506Z,21.09
2019-04-21T06:09:59.974Z,20.93
2019-04-21T06:12:29.805Z,21.02
2019-04-21T06:15:02.635Z,21.55
2019-04-21T06:17:40.911Z,22.20
2019-04-21T06:20:02.921Z,21.86
2019-04-21T06:22:30.157Z,21.56
2019-04-21T06:25:44.666Z,21.87
2019-04-21T06:27:51.201Z,21.79
2019-04-21T06:30:06.881Z,22.04
2019-04-21T06:32:47.172Z,22.93
2019-04-21T06:37:56.748Z,23.67
2019-04-21T06:43:14.167Z,23.77
2019-04-21T06:45:34.970Z,24.71
2019-04-21T06:48:06.304Z,24.90
2019-04-21T06:50:42.904Z,24.68
2019-04-21T06:53:07.117Z,25.30
2019-04-21T06:55:32.101Z,25.86
2019-04-21T06:58:06.122Z,25.88
2019-04-21T07:00:39.058Z,25.84
2019-04-21T07:03:17.218Z,26.30
2019-04-21T07:05:41.332Z,26.27
2019-04-21T07:10:38.533Z,27.58
2019-04-21T07:13:11.874Z,27.46
2019-04-21T07:15:43.426Z,27.74
2019-04-21T07:18:10.980Z,27.79
2019-04-21T07:20:49.167Z,27.87
2019-04-21T07:23:16.348Z,28.13
2019-04-21T07:25:51.961Z,27.70
2019-04-21T07:28:17.536Z,28.37
2019-04-21T07:30:56.361Z,29.71
2019-04-21T07:33:43.214Z,29.49
2019-04-21T07:35:53.960Z,30.78
2019-04-21T07:38:23.892Z,30.43
2019-04-21T07:40:48.452Z,30.70
2019-04-21T07:43:22.183Z,30.34
2019-04-21T07:45:51.592Z,30.76
2019-04-21T07:48:35.739Z,31.09
2019-04-21T07:51:11.278Z,30.87
2019-04-21T07:53:59.648Z,31.08
2019-04-21T07:56:07.267Z,31.00
2019-04-21T07:58:58.287Z,31.52
2019-04-21T08:01:28.867Z,32.18
2019-04-21T08:03:57.007Z,32.70
2019-04-21T08:06:28.347Z,32.76
2019-04-21T08:08:55.986Z,32.44
2019-04-21T08:11:28.348Z,32.98
2019-04-21T08:13:57.890Z,33.29
2019-04-21T08:16:35.033Z,33.08
2019-04-21T08:18:59.829Z,31.46
2019-04-21T08:21:33.877Z,31.04
2019-04-21T08:23:59.664Z,31.09
2019-04-21T08:26:36.908Z,31.69
2019-04-21T08:29:13.122Z,31.51
2019-04-21T08:31:50.012Z,30.83
2019-04-21T08:36:33.933Z,32.87
2019-04-21T08:39:07.341Z,31.96
2019-04-21T08:41:40.855Z,32.06
2019-04-21T08:44:10.684Z,31.53
2019-04-21T08:46:49.147Z,31.14
2019-04-21T08:49:15.529Z,31.99
2019-04-21T08:51:52.246Z,32.14
2019-04-21T08:54:23.587Z,32.16
2019-04-21T08:57:33.712Z,32.74
2019-04-21T09:00:12.481Z,32.92
2019-04-21T09:03:00.304Z,33.40
2019-04-21T09:05:23.376Z,33.76
2019-04-21T09:07:57.200Z,33.44
2019-04-21T09:10:31.074Z,33.29
2019-04-21T09:12:58.888Z,33.34
2019-04-21T09:15:30.970Z,32.86
2019-04-21T09:17:53.382Z,32.67
2019-04-21T09:20:38.797Z,32.44
2019-04-21T09:23:11.409Z,32.75
2019-04-21T09:25:42.935Z,32.85
2019-04-21T09:28:04.062Z,33.42
2019-04-21T09:30:21.912Z,32.98
2019-04-21T09:32:53.459Z,34.17
2019-04-21T09:35:23.988Z,33.19
2019-04-21T09:38:02.084Z,32.49
2019-04-21T09:40:30.131Z,32.65
2019-04-21T09:43:01.079Z,32.95
2019-04-21T09:45:26.598Z,33.24
2019-04-21T09:48:02.767Z,31.65
2019-04-21T09:50:27.039Z,32.64
2019-04-21T09:53:03.967Z,32.76
2019-04-21T09:55:36.500Z,33.53
2019-04-21T09:58:09.946Z,33.93
2019-04-21T10:00:36.320Z,33.14
2019-04-21T10:03:06.731Z,32.61
2019-04-21T10:05:32.058Z,32.52
2019-04-21T10:08:01.464Z,32.14
2019-04-21T10:10:31.845Z,32.29
2019-04-21T10:13:02.761Z,32.27
2019-04-21T10:15:33.220Z,34.00
2019-04-21T10:18:06.414Z,33.27
2019-04-21T10:20:36.355Z,32.83
2019-04-21T10:23:07.071Z,33.03
2019-04-21T10:25:36.868Z,33.00
2019-04-21T10:28:07.361Z,32.31
2019-04-21T10:30:36.725Z,33.36
2019-04-21T10:33:06.229Z,32.20
2019-04-21T10:35:35.505Z,31.99
2019-04-21T10:38:17.022Z,30.73
2019-04-21T10:40:37.295Z,32.96
2019-04-21T10:43:10.102Z,32.66
2019-04-21T10:45:39.026Z,32.13
2019-04-21T10:48:08.560Z,31.49
2019-04-21T10:50:38.916Z,32.64
2019-04-21T10:53:20.900Z,32.26
2019-04-21T10:56:03.144Z,32.16
2019-04-21T10:58:24.714Z,31.43
2019-04-21T11:01:00.078Z,31.67
2019-04-21T11:03:35.252Z,31.45
2019-04-21T11:06:06.443Z,31.22
2019-04-21T11:08:41.560Z,30.67
2019-04-21T11:11:08.041Z,31.11
2019-04-21T11:13:38.719Z,31.95
2019-04-21T11:16:08.857Z,31.19
2019-04-21T11:18:38.389Z,31.10
2019-04-21T11:21:09.072Z,30.08
2019-04-21T11:23:38.451Z,28.32
2019-04-21T11:26:07.998Z,26.93
2019-04-21T11:28:38.740Z,25.68
2019-04-21T11:31:09.044Z,24.69
2019-04-21T11:33:39.548Z,24.01
2019-04-21T11:36:09.204Z,23.08
2019-04-21T11:39:12.405Z,22.84
2019-04-21T11:41:33.911Z,22.57
2019-04-21T11:44:05.018Z,22.11
2019-04-21T11:46:34.457Z,22.03
2019-04-21T11:49:04.136Z,21.98
2019-04-21T11:51:33.573Z,21.79
2019-04-21T11:54:02.978Z,21.79
2019-04-21T11:56:32.754Z,21.68
2019-04-21T11:59:03.752Z,21.58
2019-04-21T12:01:33.810Z,21.61
2019-04-21T12:04:03.469Z,21.56
2019-04-21T12:06:40.929Z,21.27
2019-04-21T12:09:06.954Z,21.39
2019-04-21T12:14:05.915Z,21.37
2019-04-21T12:16:35.301Z,21.48
2019-04-21T12:19:05.136Z,21.34
2019-04-21T12:21:48.228Z,21.30
2019-04-21T12:24:07.027Z,21.35
2019-04-21T12:26:36.369Z,21.26
2019-04-21T12:29:06.024Z,21.32
2019-04-21T12:32:03.838Z,21.33
2019-04-21T12:34:34.295Z,21.32
2019-04-21T12:37:04.620Z,21.30
2019-04-21T12:39:34.764Z,21.23
2019-04-21T12:42:04.751Z,21.13
2019-04-21T12:44:34.242Z,21.12
2019-04-21T12:47:03.759Z,21.13
2019-04-21T12:49:33.851Z,21.15
2019-04-21T12:52:03.803Z,21.16
2019-04-21T12:54:33.450Z,21.16
2019-04-21T12:57:03.453Z,21.15
2019-04-21T12:59:34.538Z,21.11
2019-04-21T13:02:04.152Z,21.11
2019-04-21T13:04:33.642Z,21.11
2019-04-21T13:07:03.667Z,21.05
2019-04-21T13:09:34.290Z,21.02
2019-04-21T13:12:04.887Z,21.04
2019-04-21T13:14:35.758Z,21.10
2019-04-21T13:17:05.668Z,20.94
2019-04-21T13:19:35.705Z,20.91
2019-04-21T13:22:05.910Z,20.79
2019-04-21T13:24:35.928Z,20.65
2019-04-21T13:27:07.006Z,20.74
2019-04-21T13:29:36.593Z,20.65
2019-04-21T13:32:07.482Z,20.76
2019-04-21T13:34:37.930Z,20.81
2019-04-21T13:37:07.832Z,20.85
2019-04-21T13:40:34.503Z,20.92
2019-04-21T13:42:51.689Z,20.86
2019-04-21T13:45:18.334Z,20.53
2019-04-21T13:47:48.515Z,20.59
2019-04-21T13:50:19.353Z,20.61
2019-04-21T13:52:48.974Z,20.64
2019-04-21T13:55:19.388Z,20.58
2019-04-21T13:57:50.396Z,20.36
2019-04-21T14:00:21.630Z,20.25
2019-04-21T14:02:52.512Z,20.26
2019-04-21T14:05:22.434Z,20.29
2019-04-21T14:07:52.323Z,20.18
2019-04-21T14:10:21.946Z,20.19
2019-04-21T14:12:51.314Z,20.26
2019-04-21T14:15:22.379Z,20.23
2019-04-21T14:17:52.927Z,20.11
2019-04-21T14:20:22.551Z,20.04
2019-04-21T14:22:52.028Z,19.94
2019-04-21T14:25:21.688Z,20.01
2019-04-21T14:27:52.527Z,19.97
2019-04-21T14:30:22.823Z,19.91
2019-04-21T14:32:52.188Z,19.95
2019-04-21T14:35:22.797Z,20.00
2019-04-21T14:37:52.906Z,19.99
2019-04-21T14:40:27.289Z,19.96
2019-04-21T14:42:54.091Z,19.87
2019-04-21T14:45:41.117Z,19.85
2019-04-21T14:48:29.458Z,19.76
2019-04-21T14:51:16.854Z,19.70
2019-04-21T14:53:59.756Z,19.65
2019-04-21T14:56:29.281Z,19.65
2019-04-21T14:58:59.501Z,19.66
2019-04-21T15:01:29.578Z,19.63
2019-04-21T15:03:59.814Z,19.56
2019-04-21T15:06:29.582Z,19.47
2019-04-21T15:08:58.905Z,19.38
2019-04-21T15:11:29.759Z,19.33
2019-04-21T15:13:59.780Z,19.40
2019-04-21T15:16:29.158Z,19.51
2019-04-21T15:18:59.034Z,19.48
2019-04-21T15:21:29.124Z,19.54
2019-04-21T15:23:58.571Z,19.50
2019-04-21T15:26:28.460Z,19.39
2019-04-21T15:28:59.165Z,19.36
2019-04-21T15:31:33.968Z,19.22
2019-04-21T15:33:59.598Z,19.11
2019-04-21T15:36:31.823Z,19.10
2019-04-21T15:39:01.448Z,19.07
2019-04-21T15:41:32.279Z,19.07
2019-04-21T15:44:04.044Z,19.04
2019-04-21T15:46:35.141Z,19.07
2019-04-21T15:49:05.019Z,19.01
2019-04-21T15:51:35.774Z,18.97
2019-04-21T15:54:06.826Z,18.91
2019-04-21T15:56:40.772Z,19.02
2019-04-21T15:59:35.222Z,19.07
2019-04-21T16:02:22.722Z,19.13
2019-04-21T16:04:52.721Z,19.13
2019-04-21T16:07:22.361Z,19.09
2019-04-21T16:09:52.367Z,18.91
2019-04-21T16:12:22.097Z,18.79
2019-04-21T16:14:52.517Z,18.65
2019-04-21T16:17:23.437Z,18.58
2019-04-21T16:19:54.261Z,18.59
2019-04-21T16:22:24.462Z,18.57
2019-04-21T16:24:54.694Z,18.43
2019-04-21T16:27:25.576Z,18.39
2019-04-21T16:29:55.062Z,18.36
2019-04-21T16:32:24.440Z,18.32
2019-04-21T16:34:59.825Z,18.37
2019-04-21T16:37:25.707Z,18.35
2019-04-21T16:39:55.714Z,18.33
2019-04-21T16:42:24.964Z,18.29
2019-04-21T16:44:54.780Z,18.20
2019-04-21T16:47:24.259Z,18.14
2019-04-21T16:49:53.977Z,18.12
2019-04-21T16:52:28.102Z,18.06
2019-04-21T16:55:05.083Z,17.96
2019-04-21T16:57:39.950Z,17.94
2019-04-21T17:00:26.387Z,17.91
2019-04-21T17:02:44.188Z,17.76
2019-04-21T17:05:14.375Z,17.77
2019-04-21T17:07:44.981Z,17.67
2019-04-21T17:10:14.822Z,17.62
2019-04-21T17:12:45.502Z,17.56
2019-04-21T17:15:32.402Z,17.56
2019-04-21T17:18:04.158Z,17.44
2019-04-21T17:20:32.305Z,17.44
2019-04-21T17:22:49.503Z,17.35
2019-04-21T17:25:21.508Z,17.21
2019-04-21T17:27:51.371Z,17.12
2019-04-21T17:30:22.293Z,16.94
2019-04-21T17:32:53.313Z,16.84
2019-04-21T17:35:22.938Z,16.74
2019-04-21T17:37:52.363Z,16.62
2019-04-21T17:40:26.339Z,16.60
2019-04-21T17:43:01.966Z,16.43
2019-04-21T17:45:27.253Z,16.16
2019-04-21T17:48:02.927Z,16.16
2019-04-21T17:50:57.427Z,16.04
2019-04-21T17:53:43.814Z,15.95
2019-04-21T17:56:31.540Z,15.77
2019-04-21T17:58:58.465Z,15.77
2019-04-21T18:01:35.596Z,15.68
2019-04-21T18:04:05.248Z,15.62
2019-04-21T18:06:45.158Z,15.48
2019-04-21T18:09:21.702Z,15.40
2019-04-21T18:11:52.670Z,15.21
2019-04-21T18:14:01.719Z,15.08
2019-04-21T18:16:38.117Z,14.90
2019-04-21T18:19:02.604Z,14.69
2019-04-21T18:21:46.931Z,14.45
2019-04-21T18:24:17.683Z,14.20
2019-04-21T18:26:50.661Z,13.97
2019-04-21T18:29:13.670Z,13.78
2019-04-21T18:31:48.685Z,13.55
2019-04-21T18:34:33.868Z,13.38
2019-04-21T18:37:14.805Z,13.16
2019-04-21T18:39:55.849Z,12.96
2019-04-21T18:43:05.607Z,12.80
2019-04-21T18:45:56.841Z,12.62
2019-04-21T18:48:36.438Z,12.54
2019-04-21T18:51:11.925Z,12.61
2019-04-21T18:54:02.221Z,12.70
2019-04-21T18:56:20.617Z,12.69
2019-04-21T18:58:50.975Z,12.62
2019-04-21T19:01:26.284Z,12.55
2019-04-21T19:03:54.578Z,12.36
2019-04-21T19:06:42.420Z,12.24
2019-04-21T19:09:12.002Z,12.22
2019-04-21T19:11:42.202Z,12.11
2019-04-21T19:16:59.056Z,11.95
2019-04-21T19:19:41.375Z,11.77
2019-04-21T19:21:55.426Z,11.63
2019-04-21T19:24:29.497Z,11.56
2019-04-21T19:27:01.675Z,11.57
2019-04-21T19:29:35.931Z,11.50
2019-04-21T19:32:14.864Z,11.24
2019-04-21T19:34:18.813Z,11.01
2019-04-21T19:36:51.202Z,10.82
2019-04-21T19:39:23.302Z,10.58
2019-04-21T19:41:59.225Z,10.32
2019-04-21T19:44:36.596Z,10.07
2019-04-21T19:47:04.142Z,9.89
2019-04-21T19:49:43.796Z,9.70
2019-04-21T19:51:56.522Z,9.44
2019-04-21T19:54:29.413Z,9.31
2019-04-21T19:56:51.466Z,9.14
2019-04-21T19:59:31.833Z,8.98
2019-04-21T20:01:52.044Z,8.81
2019-04-21T20:04:31.520Z,8.68
2019-04-21T20:07:02.931Z,8.59
2019-04-21T20:09:43.289Z,8.52
2019-04-21T20:12:09.514Z,8.35
2019-04-21T20:14:52.192Z,8.30
2019-04-21T20:17:09.980Z,8.16
2019-04-21T20:19:28.040Z,8.09
2019-04-21T20:21:58.874Z,8.01
2019-04-21T20:24:32.046Z,7.93
2019-04-21T20:27:07.520Z,7.86
2019-04-21T20:29:53.843Z,7.86
2019-04-21T20:32:28.013Z,7.80
2019-04-21T20:34:59.152Z,7.74
2019-04-21T20:37:21.127Z,7.69
2019-04-21T20:39:46.121Z,7.63
2019-04-21T20:42:21.157Z,7.55
2019-04-21T20:45:13.077Z,7.58
2019-04-21T20:47:19.837Z,7.55
2019-04-21T20:49:50.496Z,7.53
2019-04-21T20:52:29.376Z,7.43
2019-04-21T20:54:55.908Z,7.40
2019-04-21T20:57:30.020Z,7.40
2019-04-21T21:00:03.189Z,7.35
2019-04-21T21:02:38.351Z,7.29
2019-04-21T21:04:56.425Z,7.28
2019-04-21T21:10:08.663Z,7.22
2019-04-21T21:12:44.496Z,7.17
2019-04-21T21:15:02.559Z,7.18
2019-04-21T21:17:45.462Z,7.14
2019-04-21T21:20:14.521Z,7.05
2019-04-21T21:22:41.285Z,7.02
2019-04-21T21:25:18.781Z,7.04
2019-04-21T21:27:42.163Z,7.02
2019-04-21T21:30:14.583Z,6.92
2019-04-21T21:32:44.889Z,6.89
2019-04-21T21:35:13.158Z,6.85
2019-04-21T21:37:49.284Z,6.83
2019-04-21T21:40:21.842Z,6.84
2019-04-21T21:42:37.610Z,6.82
2019-04-21T21:45:12.645Z,6.81
2019-04-21T21:47:53.630Z,6.75
2019-04-21T21:50:17.160Z,6.72
2019-04-21T21:52:47.920Z,6.73
2019-04-21T21:55:09.862Z,6.73
2019-04-21T21:57:47.573Z,6.73
2019-04-21T22:00:15.572Z,6.65
2019-04-21T22:02:50.825Z,6.64
2019-04-21T22:05:25.384Z,6.64
2019-04-21T22:07:52.183Z,6.64
2019-04-21T22:10:23.104Z,6.61
2019-04-21T22:12:59.791Z,6.60
2019-04-21T22:15:29.510Z,6.65
2019-04-21T22:18:14.700Z,6.64
2019-04-21T22:20:43.231Z,6.62
2019-04-21T22:23:05.025Z,6.63
2019-04-21T22:25:34.007Z,6.64
2019-04-21T22:28:02.058Z,6.62
2019-04-21T22:30:37.060Z,6.61
2019-04-21T22:33:08.305Z,6.63
2019-04-21T22:35:42.215Z,6.61
2019-04-21T22:38:19.798Z,6.57
2019-04-21T22:40:50.670Z,6.62
2019-04-21T22:43:19.669Z,6.57
2019-04-21T22:45:38.286Z,6.55
2019-04-21T22:48:14.298Z,6.53
2019-04-21T22:50:40.563Z,6.53
2019-04-21T22:53:11.717Z,6.54
2019-04-21T22:55:42.964Z,6.53
2019-04-21T22:58:15.908Z,6.50
2019-04-21T23:00:51.431Z,6.48
2019-04-21T23:03:19.510Z,6.42
2019-04-21T23:05:46.979Z,6.45
2019-04-21T23:08:17.249Z,6.43
2019-04-21T23:10:49.639Z,6.41
2019-04-21T23:13:21.906Z,6.42
2019-04-21T23:15:53.659Z,6.45
2019-04-21T23:18:36.251Z,6.43
2019-04-21T23:21:09.394Z,6.41
2019-04-21T23:23:44.153Z,6.37
2019-04-21T23:26:14.403Z,6.40
2019-04-21T23:28:49.145Z,6.36
2019-04-21T23:31:21.466Z,6.37
2019-04-21T23:33:27.528Z,6.36
2019-04-21T23:36:03.665Z,6.35
2019-04-21T23:38:36.538Z,6.31
2019-04-21T23:41:03.480Z,6.24
2019-04-21T23:43:33.027Z,6.20
2019-04-21T23:46:15.908Z,6.18
2019-04-21T23:48:49.595Z,6.16
2019-04-21T23:51:15.969Z,6.13
2019-04-21T23:53:35.444Z,6.08
2019-04-21T23:56:05.437Z,6.08
2019-04-21T23:58:36.732Z,6.10
